sensor_id;sensor_type;location;lat;lon;timestamp;pressure;altitude;pressure_sealevel;temperature;humidity
17781;BME280;8498;52.516;13.790;2023-04-08T00:03:56;101539.19;;;7.45;100.00
17781;BME280;8498;52.516;13.790;2023-04-08T00:09:19;101536.00;;;7.36;100.00
17781;BME280;8498;52.516;13.790;2023-04-08T00:14:41;101538.50;;;7.40;100.00
17781;BME280;8498;52.516;13.790;2023-04-08T00:20:03;101539.69;;;7.32;100.00
17781;BME280;8498;52.516;13.790;2023-04-08T00:25:26;101541.13;;;7.40;100.00
17781;BME280;8498;52.516;13.790;2023-04-08T00:30:48;101532.41;;;7.37;100.00
17781;BME280;8498;52.516;13.790;2023-04-08T00:36:12;101532.56;;;7.34;100.00
17781;BME280;8498;52.516;13.790;2023-04-08T00:41:34;101543.78;;;7.40;100.00
17781;BME280;8498;52.516;13.790;2023-04-08T00:46:57;101541.94;;;7.42;100.00
17781;BME280;8498;52.516;13.790;2023-04-08T00:52:19;101541.13;;;7.40;100.00
17781;BME280;8498;52.516;13.790;2023-04-08T00:57:42;101539.31;;;7.42;100.00
17781;BME280;8498;52.516;13.790;2023-04-08T01:03:29;101542.88;;;7.41;100.00
17781;BME280;8498;52.516;13.790;2023-04-08T01:08:52;101550.91;;;7.37;100.00
17781;BME280;8498;52.516;13.790;2023-04-08T01:14:22;101546.56;;;7.36;100.00
17781;BME280;8498;52.516;13.790;2023-04-08T01:19:47;101555.28;;;7.38;100.00
17781;BME280;8498;52.516;13.790;2023-04-08T01:25:34;101562.44;;;7.36;100.00
17781;BME280;8498;52.516;13.790;2023-04-08T01:30:59;101557.00;;;7.40;100.00
17781;BME280;8498;52.516;13.790;2023-04-08T01:36:23;101549.75;;;7.45;100.00
17781;BME280;8498;52.516;13.790;2023-04-08T01:41:47;101546.03;;;7.49;100.00
17781;BME280;8498;52.516;13.790;2023-04-08T01:47:12;101570.00;;;7.46;100.00
17781;BME280;8498;52.516;13.790;2023-04-08T01:52:36;101572.63;;;7.46;100.00
17781;BME280;8498;52.516;13.790;2023-04-08T01:58:01;101577.78;;;7.49;100.00
17781;BME280;8498;52.516;13.790;2023-04-08T02:03:26;101576.19;;;7.45;100.00
17781;BME280;8498;52.516;13.790;2023-04-08T02:08:50;101570.91;;;7.45;100.00
17781;BME280;8498;52.516;13.790;2023-04-08T02:14:15;101580.63;;;7.44;100.00
17781;BME280;8498;52.516;13.790;2023-04-08T02:19:46;101575.28;;;7.46;100.00
17781;BME280;8498;52.516;13.790;2023-04-08T02:25:15;101574.34;;;7.47;100.00
17781;BME280;8498;52.516;13.790;2023-04-08T02:30:41;101577.91;;;7.46;100.00
17781;BME280;8498;52.516;13.790;2023-04-08T02:36:04;101579.63;;;7.47;100.00
17781;BME280;8498;52.516;13.790;2023-04-08T02:41:28;101585.16;;;7.41;100.00
17781;BME280;8498;52.516;13.790;2023-04-08T02:46:51;101593.63;;;7.49;100.00
17781;BME280;8498;52.516;13.790;2023-04-08T02:52:14;101590.22;;;7.47;100.00
17781;BME280;8498;52.516;13.790;2023-04-08T02:57:38;101597.09;;;7.51;100.00
17781;BME280;8498;52.516;13.790;2023-04-08T03:03:01;101610.34;;;7.49;100.00
17781;BME280;8498;52.516;13.790;2023-04-08T03:08:24;101614.72;;;7.50;100.00
17781;BME280;8498;52.516;13.790;2023-04-08T03:13:47;101608.47;;;7.53;100.00
17781;BME280;8498;52.516;13.790;2023-04-08T03:19:09;101612.84;;;7.54;100.00
17781;BME280;8498;52.516;13.790;2023-04-08T03:24:31;101623.28;;;7.57;100.00
17781;BME280;8498;52.516;13.790;2023-04-08T03:29:54;101639.16;;;7.57;100.00
17781;BME280;8498;52.516;13.790;2023-04-08T03:35:19;101629.44;;;7.57;100.00
17781;BME280;8498;52.516;13.790;2023-04-08T03:40:42;101628.59;;;7.57;100.00
17781;BME280;8498;52.516;13.790;2023-04-08T03:46:04;101638.53;;;7.50;100.00
17781;BME280;8498;52.516;13.790;2023-04-08T03:51:26;101644.56;;;7.54;100.00
17781;BME280;8498;52.516;13.790;2023-04-08T03:56:49;101647.88;;;7.59;100.00
17781;BME280;8498;52.516;13.790;2023-04-08T04:02:12;101648.00;;;7.56;100.00
17781;BME280;8498;52.516;13.790;2023-04-08T04:07:37;101654.88;;;7.60;100.00
17781;BME280;8498;52.516;13.790;2023-04-08T04:12:59;101670.75;;;7.60;100.00
17781;BME280;8498;52.516;13.790;2023-04-08T04:18:22;101662.75;;;7.61;100.00
17781;BME280;8498;52.516;13.790;2023-04-08T04:23:44;101674.19;;;7.62;100.00
17781;BME280;8498;52.516;13.790;2023-04-08T04:29:07;101674.31;;;7.59;100.00
17781;BME280;8498;52.516;13.790;2023-04-08T04:34:29;101682.00;;;7.65;100.00
17781;BME280;8498;52.516;13.790;2023-04-08T04:39:51;101691.63;;;7.67;100.00
17781;BME280;8498;52.516;13.790;2023-04-08T04:45:14;101685.31;;;7.70;100.00
17781;BME280;8498;52.516;13.790;2023-04-08T04:50:36;101690.66;;;7.68;100.00
17781;BME280;8498;52.516;13.790;2023-04-08T04:55:58;101690.59;;;7.70;100.00
17781;BME280;8498;52.516;13.790;2023-04-08T05:01:23;101703.06;;;7.68;100.00
17781;BME280;8498;52.516;13.790;2023-04-08T05:06:45;101698.44;;;7.73;100.00
17781;BME280;8498;52.516;13.790;2023-04-08T05:12:07;101706.97;;;7.80;100.00
17781;BME280;8498;52.516;13.790;2023-04-08T05:17:30;101718.31;;;7.83;100.00
17781;BME280;8498;52.516;13.790;2023-04-08T05:22:53;101733.38;;;7.81;100.00
17781;BME280;8498;52.516;13.790;2023-04-08T05:28:15;101721.56;;;7.90;100.00
17781;BME280;8498;52.516;13.790;2023-04-08T05:33:37;101729.69;;;7.85;100.00
17781;BME280;8498;52.516;13.790;2023-04-08T05:39:00;101738.91;;;7.97;100.00
17781;BME280;8498;52.516;13.790;2023-04-08T05:44:24;101746.53;;;8.04;100.00
17781;BME280;8498;52.516;13.790;2023-04-08T05:49:46;101749.25;;;8.03;100.00
17781;BME280;8498;52.516;13.790;2023-04-08T05:55:13;101750.81;;;8.08;100.00
17781;BME280;8498;52.516;13.790;2023-04-08T06:00:36;101753.19;;;8.15;100.00
17781;BME280;8498;52.516;13.790;2023-04-08T06:05:58;101743.88;;;8.26;100.00
17781;BME280;8498;52.516;13.790;2023-04-08T06:11:20;101760.28;;;8.36;100.00
17781;BME280;8498;52.516;13.790;2023-04-08T06:16:43;101766.38;;;8.38;100.00
17781;BME280;8498;52.516;13.790;2023-04-08T06:22:05;101769.69;;;8.43;100.00
17781;BME280;8498;52.516;13.790;2023-04-08T06:27:27;101775.66;;;8.48;100.00
17781;BME280;8498;52.516;13.790;2023-04-08T06:32:50;101783.22;;;8.57;100.00
17781;BME280;8498;52.516;13.790;2023-04-08T06:38:12;101787.94;;;8.71;100.00
17781;BME280;8498;52.516;13.790;2023-04-08T06:43:36;101794.47;;;8.82;100.00
17781;BME280;8498;52.516;13.790;2023-04-08T06:48:59;101789.78;;;8.89;100.00
17781;BME280;8498;52.516;13.790;2023-04-08T06:54:21;101807.88;;;9.00;100.00
17781;BME280;8498;52.516;13.790;2023-04-08T06:59:44;101819.91;;;9.07;100.00
17781;BME280;8498;52.516;13.790;2023-04-08T07:05:06;101817.13;;;9.10;99.40
17781;BME280;8498;52.516;13.790;2023-04-08T07:10:29;101822.16;;;9.16;98.85
17781;BME280;8498;52.516;13.790;2023-04-08T07:15:51;101831.97;;;9.34;99.05
17781;BME280;8498;52.516;13.790;2023-04-08T07:21:14;101844.09;;;9.58;98.89
17781;BME280;8498;52.516;13.790;2023-04-08T07:26:37;101849.53;;;9.55;97.52
17781;BME280;8498;52.516;13.790;2023-04-08T07:31:59;101840.53;;;9.60;97.28
17781;BME280;8498;52.516;13.790;2023-04-08T07:37:22;101853.59;;;9.64;96.95
17781;BME280;8498;52.516;13.790;2023-04-08T07:42:44;101848.88;;;9.71;97.24
17781;BME280;8498;52.516;13.790;2023-04-08T07:48:07;101848.31;;;9.83;96.33
17781;BME280;8498;52.516;13.790;2023-04-08T07:53:29;101856.75;;;9.91;94.83
17781;BME280;8498;52.516;13.790;2023-04-08T07:58:51;101861.50;;;10.03;95.21
17781;BME280;8498;52.516;13.790;2023-04-08T08:04:15;101865.53;;;10.30;95.24
17781;BME280;8498;52.516;13.790;2023-04-08T08:09:38;101873.28;;;10.16;92.40
17781;BME280;8498;52.516;13.790;2023-04-08T08:15:01;101875.41;;;10.08;93.47
17781;BME280;8498;52.516;13.790;2023-04-08T08:20:23;101874.84;;;10.02;92.84
17781;BME280;8498;52.516;13.790;2023-04-08T08:25:46;101893.78;;;9.94;92.63
17781;BME280;8498;52.516;13.790;2023-04-08T08:31:08;101898.53;;;10.06;92.84
17781;BME280;8498;52.516;13.790;2023-04-08T08:36:30;101901.97;;;10.08;92.42
17781;BME280;8498;52.516;13.790;2023-04-08T08:41:55;101903.63;;;9.92;92.67
17781;BME280;8498;52.516;13.790;2023-04-08T08:47:18;101910.84;;;9.88;92.40
17781;BME280;8498;52.516;13.790;2023-04-08T08:52:47;101912.13;;;9.80;92.69
17781;BME280;8498;52.516;13.790;2023-04-08T08:58:10;101908.00;;;9.93;92.83
17781;BME280;8498;52.516;13.790;2023-04-08T09:03:32;101909.31;;;10.41;91.94
17781;BME280;8498;52.516;13.790;2023-04-08T09:08:55;101913.41;;;10.84;88.91
17781;BME280;8498;52.516;13.790;2023-04-08T09:14:22;101919.75;;;11.16;87.26
17781;BME280;8498;52.516;13.790;2023-04-08T09:20:23;101925.78;;;11.19;86.18
17781;BME280;8498;52.516;13.790;2023-04-08T09:25:46;101925.31;;;11.11;84.17
17781;BME280;8498;52.516;13.790;2023-04-08T09:31:27;101935.19;;;11.09;85.50
17781;BME280;8498;52.516;13.790;2023-04-08T09:36:51;101934.72;;;11.18;84.35
17781;BME280;8498;52.516;13.790;2023-04-08T09:42:13;101948.88;;;11.19;83.90
17781;BME280;8498;52.516;13.790;2023-04-08T09:47:56;101944.16;;;11.58;82.35
17781;BME280;8498;52.516;13.790;2023-04-08T09:53:29;101941.50;;;11.58;81.32
17781;BME280;8498;52.516;13.790;2023-04-08T09:59:02;101944.66;;;11.49;82.83
17781;BME280;8498;52.516;13.790;2023-04-08T10:04:30;101949.81;;;11.52;81.13
17781;BME280;8498;52.516;13.790;2023-04-08T10:09:57;101948.25;;;11.83;80.47
17781;BME280;8498;52.516;13.790;2023-04-08T10:15:30;101942.63;;;12.83;77.57
17781;BME280;8498;52.516;13.790;2023-04-08T10:20:53;101950.88;;;12.94;75.58
17781;BME280;8498;52.516;13.790;2023-04-08T10:26:33;101953.38;;;12.81;75.75
17781;BME280;8498;52.516;13.790;2023-04-08T10:31:57;101945.13;;;12.86;75.56
17781;BME280;8498;52.516;13.790;2023-04-08T10:37:19;101947.13;;;13.12;72.91
17781;BME280;8498;52.516;13.790;2023-04-08T10:42:42;101948.63;;;13.02;70.47
17781;BME280;8498;52.516;13.790;2023-04-08T10:48:21;101957.69;;;13.30;71.00
17781;BME280;8498;52.516;13.790;2023-04-08T10:53:44;101955.34;;;12.94;71.65
17781;BME280;8498;52.516;13.790;2023-04-08T10:59:06;101956.75;;;12.69;72.62
17781;BME280;8498;52.516;13.790;2023-04-08T11:04:28;101954.28;;;12.66;71.86
17781;BME280;8498;52.516;13.790;2023-04-08T11:09:51;101962.78;;;12.73;71.05
17781;BME280;8498;52.516;13.790;2023-04-08T11:15:13;101952.28;;;12.85;69.44
17781;BME280;8498;52.516;13.790;2023-04-08T11:20:37;101955.78;;;13.17;69.28
17781;BME280;8498;52.516;13.790;2023-04-08T11:25:59;101953.91;;;13.34;65.90
17781;BME280;8498;52.516;13.790;2023-04-08T11:31:24;101961.03;;;13.63;63.86
17781;BME280;8498;52.516;13.790;2023-04-08T11:36:46;101949.38;;;14.63;58.24
17781;BME280;8498;52.516;13.790;2023-04-08T11:42:25;101967.34;;;14.47;56.25
17781;BME280;8498;52.516;13.790;2023-04-08T11:47:48;101963.53;;;14.37;57.95
17781;BME280;8498;52.516;13.790;2023-04-08T11:58:40;101948.72;;;15.14;54.38
17781;BME280;8498;52.516;13.790;2023-04-08T12:04:02;101939.59;;;15.03;54.85
17781;BME280;8498;52.516;13.790;2023-04-08T12:09:26;101950.44;;;15.27;52.63
17781;BME280;8498;52.516;13.790;2023-04-08T12:14:48;101945.63;;;15.20;52.18
17781;BME280;8498;52.516;13.790;2023-04-08T12:20:12;101955.59;;;15.30;51.12
17781;BME280;8498;52.516;13.790;2023-04-08T12:25:34;101952.56;;;16.00;51.17
17781;BME280;8498;52.516;13.790;2023-04-08T12:30:56;101947.56;;;15.83;51.20
17781;BME280;8498;52.516;13.790;2023-04-08T12:36:19;101940.97;;;16.61;49.10
17781;BME280;8498;52.516;13.790;2023-04-08T12:41:41;101948.06;;;16.62;49.28
17781;BME280;8498;52.516;13.790;2023-04-08T12:47:04;101932.97;;;17.09;48.39
17781;BME280;8498;52.516;13.790;2023-04-08T12:52:26;101935.84;;;16.58;48.27
17781;BME280;8498;52.516;13.790;2023-04-08T12:57:49;101923.19;;;17.08;48.26
17781;BME280;8498;52.516;13.790;2023-04-08T13:03:12;101929.91;;;17.48;48.89
17781;BME280;8498;52.516;13.790;2023-04-08T13:08:37;101928.28;;;18.14;46.15
17781;BME280;8498;52.516;13.790;2023-04-08T13:13:59;101930.22;;;16.61;48.74
17781;BME280;8498;52.516;13.790;2023-04-08T13:19:22;101930.59;;;15.95;49.80
17781;BME280;8498;52.516;13.790;2023-04-08T13:24:44;101940.97;;;15.09;51.20
17781;BME280;8498;52.516;13.790;2023-04-08T13:30:08;101934.69;;;14.56;52.28
17781;BME280;8498;52.516;13.790;2023-04-08T13:35:31;101925.03;;;15.60;51.27
17781;BME280;8498;52.516;13.790;2023-04-08T13:40:53;101929.50;;;16.10;48.72
17781;BME280;8498;52.516;13.790;2023-04-08T13:46:17;101922.13;;;16.01;48.08
17781;BME280;8498;52.516;13.790;2023-04-08T13:51:39;101917.38;;;16.66;47.29
17781;BME280;8498;52.516;13.790;2023-04-08T13:57:02;101928.09;;;16.66;47.02
17781;BME280;8498;52.516;13.790;2023-04-08T14:02:24;101919.47;;;16.98;46.26
17781;BME280;8498;52.516;13.790;2023-04-08T14:07:47;101926.75;;;15.86;47.80
17781;BME280;8498;52.516;13.790;2023-04-08T14:13:08;101920.84;;;16.43;47.31
17781;BME280;8498;52.516;13.790;2023-04-08T14:18:31;101918.91;;;17.05;46.42
17781;BME280;8498;52.516;13.790;2023-04-08T14:23:53;101913.38;;;16.96;47.13
17781;BME280;8498;52.516;13.790;2023-04-08T14:29:15;101916.63;;;16.88;46.07
17781;BME280;8498;52.516;13.790;2023-04-08T14:34:38;101914.22;;;16.36;45.61
17781;BME280;8498;52.516;13.790;2023-04-08T14:40:00;101913.16;;;15.12;48.46
17781;BME280;8498;52.516;13.790;2023-04-08T14:45:23;101916.66;;;16.02;48.12
17781;BME280;8498;52.516;13.790;2023-04-08T14:50:45;101909.94;;;16.33;47.09
17781;BME280;8498;52.516;13.790;2023-04-08T14:56:07;101902.94;;;16.80;46.49
17781;BME280;8498;52.516;13.790;2023-04-08T15:01:30;101910.72;;;16.59;47.69
17781;BME280;8498;52.516;13.790;2023-04-08T15:06:57;101906.25;;;16.47;46.67
17781;BME280;8498;52.516;13.790;2023-04-08T15:12:19;101903.59;;;15.98;48.75
17781;BME280;8498;52.516;13.790;2023-04-08T15:17:42;101906.59;;;15.68;49.73
17781;BME280;8498;52.516;13.790;2023-04-08T15:23:04;101911.50;;;15.49;49.70
17781;BME280;8498;52.516;13.790;2023-04-08T15:28:27;101914.91;;;15.38;50.20
17781;BME280;8498;52.516;13.790;2023-04-08T15:33:49;101907.09;;;15.35;50.83
17781;BME280;8498;52.516;13.790;2023-04-08T15:39:13;101918.66;;;14.96;51.65
17781;BME280;8498;52.516;13.790;2023-04-08T15:44:36;101921.56;;;14.66;52.68
17781;BME280;8498;52.516;13.790;2023-04-08T15:49:58;101927.81;;;14.38;53.09
17781;BME280;8498;52.516;13.790;2023-04-08T15:55:21;101932.91;;;14.28;53.73
17781;BME280;8498;52.516;13.790;2023-04-08T16:00:43;101932.44;;;14.22;53.19
17781;BME280;8498;52.516;13.790;2023-04-08T16:06:06;101927.09;;;14.22;53.76
17781;BME280;8498;52.516;13.790;2023-04-08T16:11:29;101935.78;;;14.11;54.50
17781;BME280;8498;52.516;13.790;2023-04-08T16:16:52;101931.97;;;13.87;54.73
17781;BME280;8498;52.516;13.790;2023-04-08T16:22:14;101941.91;;;13.99;55.66
17781;BME280;8498;52.516;13.790;2023-04-08T16:27:36;101946.38;;;13.99;55.96
17781;BME280;8498;52.516;13.790;2023-04-08T16:32:59;101951.88;;;13.81;56.92
17781;BME280;8498;52.516;13.790;2023-04-08T16:38:22;101960.38;;;13.59;58.47
17781;BME280;8498;52.516;13.790;2023-04-08T16:43:46;101974.09;;;13.23;60.98
17781;BME280;8498;52.516;13.790;2023-04-08T16:49:09;101975.66;;;12.96;62.61
17781;BME280;8498;52.516;13.790;2023-04-08T16:54:34;101994.59;;;13.07;62.36
17781;BME280;8498;52.516;13.790;2023-04-08T16:59:57;101990.47;;;13.17;62.62
17781;BME280;8498;52.516;13.790;2023-04-08T17:05:26;102000.78;;;13.23;60.76
17781;BME280;8498;52.516;13.790;2023-04-08T17:10:48;102017.81;;;12.74;61.58
17781;BME280;8498;52.516;13.790;2023-04-08T17:16:15;102025.00;;;12.25;63.68
17781;BME280;8498;52.516;13.790;2023-04-08T17:21:38;102033.97;;;11.89;65.09
17781;BME280;8498;52.516;13.790;2023-04-08T17:27:00;102038.66;;;11.67;66.42
17781;BME280;8498;52.516;13.790;2023-04-08T17:32:23;102039.97;;;11.41;67.66
17781;BME280;8498;52.516;13.790;2023-04-08T17:37:45;102059.16;;;11.12;68.99
17781;BME280;8498;52.516;13.790;2023-04-08T17:43:08;102065.78;;;10.84;70.00
17781;BME280;8498;52.516;13.790;2023-04-08T17:48:31;102076.06;;;10.73;70.05
17781;BME280;8498;52.516;13.790;2023-04-08T17:53:53;102076.63;;;10.61;70.50
17781;BME280;8498;52.516;13.790;2023-04-08T17:59:16;102086.97;;;10.48;70.88
17781;BME280;8498;52.516;13.790;2023-04-08T18:04:38;102095.09;;;10.05;72.05
17781;BME280;8498;52.516;13.790;2023-04-08T18:10:02;102097.28;;;9.95;71.74
17781;BME280;8498;52.516;13.790;2023-04-08T18:15:24;102101.50;;;9.79;72.17
17781;BME280;8498;52.516;13.790;2023-04-08T18:20:46;102118.84;;;9.66;72.77
17781;BME280;8498;52.516;13.790;2023-04-08T18:26:09;102128.91;;;9.57;72.81
17781;BME280;8498;52.516;13.790;2023-04-08T18:31:32;102139.91;;;9.27;73.82
17781;BME280;8498;52.516;13.790;2023-04-08T18:36:55;102142.25;;;9.12;75.00
17781;BME280;8498;52.516;13.790;2023-04-08T18:42:18;102154.03;;;9.04;75.42
17781;BME280;8498;52.516;13.790;2023-04-08T18:47:40;102156.88;;;8.99;75.73
17781;BME280;8498;52.516;13.790;2023-04-08T18:53:03;102169.97;;;8.80;76.50
17781;BME280;8498;52.516;13.790;2023-04-08T18:58:25;102178.56;;;8.62;77.18
17781;BME280;8498;52.516;13.790;2023-04-08T19:03:51;102179.81;;;8.52;77.55
17781;BME280;8498;52.516;13.790;2023-04-08T19:09:14;102179.09;;;8.49;77.58
17781;BME280;8498;52.516;13.790;2023-04-08T19:14:37;102188.00;;;8.46;78.93
17781;BME280;8498;52.516;13.790;2023-04-08T19:20:00;102190.25;;;8.57;78.61
17781;BME280;8498;52.516;13.790;2023-04-08T19:25:24;102193.81;;;8.56;79.24
17781;BME280;8498;52.516;13.790;2023-04-08T19:30:48;102194.34;;;8.65;79.72
17781;BME280;8498;52.516;13.790;2023-04-08T19:36:12;102192.25;;;8.75;79.82
17781;BME280;8498;52.516;13.790;2023-04-08T19:41:35;102197.25;;;8.82;79.76
17781;BME280;8498;52.516;13.790;2023-04-08T19:46:57;102189.25;;;8.84;80.20
17781;BME280;8498;52.516;13.790;2023-04-08T19:52:20;102203.38;;;8.84;80.41
17781;BME280;8498;52.516;13.790;2023-04-08T19:57:43;102195.41;;;8.84;80.94
17781;BME280;8498;52.516;13.790;2023-04-08T20:03:08;102195.47;;;8.83;81.06
17781;BME280;8498;52.516;13.790;2023-04-08T20:08:31;102195.06;;;8.70;80.40
17781;BME280;8498;52.516;13.790;2023-04-08T20:13:56;102203.13;;;8.67;80.38
17781;BME280;8498;52.516;13.790;2023-04-08T20:19:18;102209.72;;;8.56;80.98
17781;BME280;8498;52.516;13.790;2023-04-08T20:24:40;102207.25;;;8.51;80.99
17781;BME280;8498;52.516;13.790;2023-04-08T20:30:03;102197.09;;;8.39;80.88
17781;BME280;8498;52.516;13.790;2023-04-08T20:35:26;102215.28;;;8.22;82.96
17781;BME280;8498;52.516;13.790;2023-04-08T20:40:49;102207.56;;;8.16;82.37
17781;BME280;8498;52.516;13.790;2023-04-08T20:46:12;102213.50;;;7.96;82.62
17781;BME280;8498;52.516;13.790;2023-04-08T20:51:34;102208.31;;;7.93;83.99
17781;BME280;8498;52.516;13.790;2023-04-08T20:56:57;102208.53;;;7.87;83.58
17781;BME280;8498;52.516;13.790;2023-04-08T21:02:19;102212.94;;;7.86;84.40
17781;BME280;8498;52.516;13.790;2023-04-08T21:07:42;102205.63;;;7.94;84.59
17781;BME280;8498;52.516;13.790;2023-04-08T21:13:05;102216.00;;;8.00;84.76
17781;BME280;8498;52.516;13.790;2023-04-08T21:18:28;102221.97;;;8.07;84.20
17781;BME280;8498;52.516;13.790;2023-04-08T21:23:50;102221.75;;;8.13;83.57
17781;BME280;8498;52.516;13.790;2023-04-08T21:29:12;102224.44;;;8.11;83.30
17781;BME280;8498;52.516;13.790;2023-04-08T21:34:35;102220.06;;;8.10;82.98
17781;BME280;8498;52.516;13.790;2023-04-08T21:39:58;102209.78;;;8.01;83.74
17781;BME280;8498;52.516;13.790;2023-04-08T21:45:20;102211.00;;;7.91;84.08
17781;BME280;8498;52.516;13.790;2023-04-08T21:50:43;102225.81;;;7.69;83.85
17781;BME280;8498;52.516;13.790;2023-04-08T21:56:06;102213.97;;;7.54;84.41
17781;BME280;8498;52.516;13.790;2023-04-08T22:01:29;102207.81;;;7.26;84.95
17781;BME280;8498;52.516;13.790;2023-04-08T22:06:52;102214.16;;;7.19;85.12
17781;BME280;8498;52.516;13.790;2023-04-08T22:12:14;102209.53;;;6.96;85.38
17781;BME280;8498;52.516;13.790;2023-04-08T22:17:36;102210.81;;;6.83;85.74
17781;BME280;8498;52.516;13.790;2023-04-08T22:22:58;102205.19;;;6.64;86.18
17781;BME280;8498;52.516;13.790;2023-04-08T22:28:21;102202.84;;;6.53;86.09
17781;BME280;8498;52.516;13.790;2023-04-08T22:33:44;102194.41;;;6.39;86.40
17781;BME280;8498;52.516;13.790;2023-04-08T22:39:07;102185.09;;;6.24;86.37
17781;BME280;8498;52.516;13.790;2023-04-08T22:44:29;102184.72;;;6.06;87.31
17781;BME280;8498;52.516;13.790;2023-04-08T22:49:52;102183.50;;;5.83;88.37
17781;BME280;8498;52.516;13.790;2023-04-08T22:55:14;102192.53;;;5.73;89.31
17781;BME280;8498;52.516;13.790;2023-04-08T23:00:37;102182.94;;;5.71;88.25
17781;BME280;8498;52.516;13.790;2023-04-08T23:05:59;102186.81;;;5.54;89.11
17781;BME280;8498;52.516;13.790;2023-04-08T23:11:22;102184.34;;;5.48;88.93
17781;BME280;8498;52.516;13.790;2023-04-08T23:16:44;102188.03;;;5.40;89.02
17781;BME280;8498;52.516;13.790;2023-04-08T23:22:07;102187.50;;;5.26;89.43
17781;BME280;8498;52.516;13.790;2023-04-08T23:27:29;102184.72;;;5.32;89.14
17781;BME280;8498;52.516;13.790;2023-04-08T23:32:52;102189.34;;;5.21;88.40
17781;BME280;8498;52.516;13.790;2023-04-08T23:38:14;102185.97;;;5.15;88.77
17781;BME280;8498;52.516;13.790;2023-04-08T23:43:37;102185.38;;;5.01;88.45
17781;BME280;8498;52.516;13.790;2023-04-08T23:48:59;102186.44;;;4.93;88.92
17781;BME280;8498;52.516;13.790;2023-04-08T23:54:22;102186.72;;;4.79;88.65
17781;BME280;8498;52.516;13.790;2023-04-08T23:59:44;102181.59;;;4.71;89.10
